Salt Lake City, Utah
Traffic Map
Current Weather Conditions
Salt Lake City, Utah
Clear
Clear

Feels Like: 8°
Wind Chill: Ceiling: Unl
Heat Index: Visibility: 10mi
Dew Point: -6° Wind: 3mph
Humidity: 36% Direction: ° ()
Pressure: 30.03in Gusts: 0mph
Raw Report DataKSLC 211853Z VRB03KT 10SM CLR 08/M06 A3003 RMK AO2 SLP167 T00831061
Traffic Incident Summary
Active as of:
Severity:
Category:
InformationThere was an issue retrieving the traffic information for this location. Please try a different location or try again shortly.
Advertisements
Track Severe Weather on mobile